Time;durP1;ratioP1;P1;durP2;ratioP2;P2;SDS_P1;SDS_P2;PMS_P1;PMS_P2;Temp;Humidity;BMP_temperature;BMP_pressure;BME280_temperature;BME280_humidity;BME280_pressure;Samples;Min_cycle;Max_cycle;Signal;HPM_P1;HPM_P2
2023/07/20 00:01:29;;;;;;;13.00;8.50;;;;;;;;;;106770;1250;61215;-79
2023/07/20 00:03:55;;;;;;;10.50;7.80;;;;;;;;;;106769;1251;61213;-78
2023/07/20 00:06:22;;;;;;;11.90;8.50;;;;;;;;;;106765;1251;61293;-79
2023/07/20 00:08:48;;;;;;;13.30;9.10;;;;;;;;;;107121;1252;61101;-79
2023/07/20 00:11:15;;;;;;;15.50;9.00;;;;;;;;;;109875;1249;59107;-79
2023/07/20 00:13:41;;;;;;;15.30;8.90;;;;;;;;;;109875;1250;59031;-79
2023/07/20 00:16:07;;;;;;;13.80;9.40;;;;;;;;;;107856;1250;61353;-79
2023/07/20 00:18:34;;;;;;;17.10;7.70;;;;;;;;;;106826;1251;61326;-78
2023/07/20 00:21:01;;;;;;;12.80;9.30;;;;;;;;;;106809;1253;61368;-78
2023/07/20 00:23:28;;;;;;;13.40;8.40;;;;;;;;;;106799;1251;61292;-78
2023/07/20 00:25:54;;;;;;;11.80;8.80;;;;;;;;;;106836;1250;61095;-78
2023/07/20 00:28:20;;;;;;;12.30;9.00;;;;;;;;;;106795;1250;61223;-78
2023/07/20 00:30:47;;;;;;;14.80;8.90;;;;;;;;;;106809;1253;61333;-78
2023/07/20 00:33:16;;;;;;;16.70;10.20;;;;;;;;;;106726;1251;61157;-78
2023/07/20 00:35:42;;;;;;;14.10;8.50;;;;;;;;;;106743;1254;61359;-78
2023/07/20 00:38:09;;;;;;;17.80;9.40;;;;;;;;;;106736;1250;61252;-79
2023/07/20 00:40:35;;;;;;;14.40;8.80;;;;;;;;;;106747;1250;61347;-79
2023/07/20 00:43:03;;;;;;;17.70;9.40;;;;;;;;;;106762;1251;61248;-78
2023/07/20 00:45:29;;;;;;;13.90;9.80;;;;;;;;;;106783;1254;61283;-78
2023/07/20 00:47:56;;;;;;;12.70;9.10;;;;;;;;;;106751;1251;61346;-79
2023/07/20 00:50:23;;;;;;;12.60;8.80;;;;;;;;;;106751;1254;61133;-78
2023/07/20 00:52:49;;;;;;;17.80;8.90;;;;;;;;;;106741;1251;61222;-79
2023/07/20 00:55:16;;;;;;;11.70;9.30;;;;;;;;;;106767;1254;61486;-79
2023/07/20 00:57:42;;;;;;;12.50;8.60;;;;;;;;;;106759;1251;61761;-78
2023/07/20 01:00:09;;;;;;;17.60;9.70;;;;;;;;;;106800;1253;60345;-80
2023/07/20 01:02:36;;;;;;;20.90;9.60;;;;;;;;;;109799;1251;58829;-80
2023/07/20 01:05:03;;;;;;;15.90;9.30;;;;;;;;;;109812;1251;59577;-79
2023/07/20 01:07:35;;;;;;;11.90;8.30;;;;;;;;;;109469;1251;59248;-79
2023/07/20 01:10:02;;;;;;;13.60;8.40;;;;;;;;;;106758;1250;61321;-80
2023/07/20 01:12:32;;;;;;;12.60;7.80;;;;;;;;;;106826;1249;61128;-79
2023/07/20 01:14:58;;;;;;;14.50;9.00;;;;;;;;;;106817;1250;61344;-79
2023/07/20 01:17:25;;;;;;;13.50;7.90;;;;;;;;;;106819;1253;61307;-79
2023/07/20 01:19:51;;;;;;;16.20;9.60;;;;;;;;;;106827;1251;61246;-79
2023/07/20 01:22:38;;;;;;;13.70;8.50;;;;;;;;;;106771;1251;61251;-79
2023/07/20 01:25:35;;;;;;;13.30;7.50;;;;;;;;;;107457;1253;61171;-79
2023/07/20 01:28:07;;;;;;;17.90;9.40;;;;;;;;;;107355;1253;61205;-79
2023/07/20 01:30:39;;;;;;;12.40;8.50;;;;;;;;;;107391;1249;61195;-79
2023/07/20 01:33:06;;;;;;;13.10;9.50;;;;;;;;;;107394;1251;61339;-79
2023/07/20 01:35:32;;;;;;;45.10;24.30;;;;;;;;;;107297;1251;61221;-79
2023/07/20 01:37:59;;;;;;;19.50;11.90;;;;;;;;;;107742;1251;61374;-79
2023/07/20 01:40:25;;;;;;;17.20;10.20;;;;;;;;;;109789;1251;58971;-79
2023/07/20 01:42:52;;;;;;;17.60;9.70;;;;;;;;;;109825;1251;59494;-79
2023/07/20 01:45:18;;;;;;;15.00;9.70;;;;;;;;;;109815;1251;58891;-79
2023/07/20 01:47:44;;;;;;;16.30;9.40;;;;;;;;;;109786;1251;58926;-80
2023/07/20 01:50:11;;;;;;;13.10;9.50;;;;;;;;;;109786;1250;58845;-80
2023/07/20 01:52:37;;;;;;;16.60;10.50;;;;;;;;;;108164;1251;59212;-79
2023/07/20 01:55:04;;;;;;;14.90;8.50;;;;;;;;;;107355;1251;61362;-80
2023/07/20 01:57:30;;;;;;;11.90;8.70;;;;;;;;;;107325;1252;61248;-79
2023/07/20 01:59:56;;;;;;;12.00;8.00;;;;;;;;;;107361;1251;61291;-79
2023/07/20 02:02:26;;;;;;;19.10;9.10;;;;;;;;;;107304;1255;61359;-79
2023/07/20 02:04:52;;;;;;;15.80;8.80;;;;;;;;;;107382;1251;62153;-80
2023/07/20 02:07:18;;;;;;;13.20;8.20;;;;;;;;;;107364;1251;61423;-80
2023/07/20 02:09:45;;;;;;;10.80;7.90;;;;;;;;;;107356;1251;61099;-79
2023/07/20 02:12:11;;;;;;;11.50;8.20;;;;;;;;;;107414;1249;61346;-79
2023/07/20 02:14:37;;;;;;;10.80;7.30;;;;;;;;;;107453;1253;61375;-79
2023/07/20 02:17:04;;;;;;;9.80;7.10;;;;;;;;;;107368;1254;61821;-79
2023/07/20 02:19:30;;;;;;;12.10;7.90;;;;;;;;;;107404;1250;61347;-79
2023/07/20 02:21:58;;;;;;;12.10;7.70;;;;;;;;;;107406;1249;61340;-79
2023/07/20 02:24:25;;;;;;;14.80;8.20;;;;;;;;;;107559;1250;62209;-78
2023/07/20 02:26:52;;;;;;;11.20;8.60;;;;;;;;;;107392;1249;61817;-79
2023/07/20 02:29:18;;;;;;;14.20;8.90;;;;;;;;;;107417;1250;61097;-78
2023/07/20 02:31:44;;;;;;;13.90;9.20;;;;;;;;;;107417;1249;61245;-79
2023/07/20 02:34:11;;;;;;;13.30;8.10;;;;;;;;;;107426;1249;61231;-79
2023/07/20 02:36:37;;;;;;;11.90;8.30;;;;;;;;;;107337;1250;61346;-79
2023/07/20 02:39:04;;;;;;;15.40;8.70;;;;;;;;;;107403;1252;61350;-79
2023/07/20 02:41:30;;;;;;;14.50;9.00;;;;;;;;;;107425;1253;59939;-79
2023/07/20 02:43:57;;;;;;;12.80;8.00;;;;;;;;;;107396;1249;61476;-79
2023/07/20 02:46:23;;;;;;;13.10;9.20;;;;;;;;;;107338;1249;61360;-79
2023/07/20 02:48:50;;;;;;;15.20;8.90;;;;;;;;;;107898;1250;61134;-81
2023/07/20 02:51:16;;;;;;;14.70;8.50;;;;;;;;;;109883;1250;58969;-80
2023/07/20 02:53:43;;;;;;;12.20;8.50;;;;;;;;;;109913;1249;58907;-80
2023/07/20 02:56:10;;;;;;;11.40;7.90;;;;;;;;;;109906;1249;60121;-80
2023/07/20 02:58:39;;;;;;;10.40;8.20;;;;;;;;;;109883;1249;58941;-80
2023/07/20 03:01:06;;;;;;;12.50;8.60;;;;;;;;;;109581;1250;61286;-79
2023/07/20 03:03:38;;;;;;;15.60;8.40;;;;;;;;;;107487;1251;61357;-79
2023/07/20 03:06:05;;;;;;;16.90;7.30;;;;;;;;;;107444;1252;61120;-79
2023/07/20 03:08:31;;;;;;;13.60;8.50;;;;;;;;;;107359;1249;61101;-79
2023/07/20 03:10:58;;;;;;;11.80;8.10;;;;;;;;;;107431;1250;60378;-79
2023/07/20 03:13:24;;;;;;;11.50;8.40;;;;;;;;;;107372;1252;61248;-79
2023/07/20 03:15:52;;;;;;;13.40;8.40;;;;;;;;;;107422;1249;61068;-79
2023/07/20 03:18:18;;;;;;;15.20;9.80;;;;;;;;;;107422;1249;61218;-79
2023/07/20 03:20:46;;;;;;;14.70;9.30;;;;;;;;;;107365;1249;61237;-79
2023/07/20 03:23:12;;;;;;;10.70;8.90;;;;;;;;;;107375;1256;61120;-79
2023/07/20 03:25:39;;;;;;;14.60;9.10;;;;;;;;;;107451;1250;61239;-79
2023/07/20 03:28:05;;;;;;;14.10;9.20;;;;;;;;;;107404;1249;61192;-79
2023/07/20 03:30:32;;;;;;;16.80;11.10;;;;;;;;;;107449;1250;61090;-79
2023/07/20 03:32:58;;;;;;;78.10;55.40;;;;;;;;;;107376;1251;61161;-80
2023/07/20 03:35:25;;;;;;;48.90;38.00;;;;;;;;;;109502;1250;61311;-79
2023/07/20 03:37:51;;;;;;;41.60;34.30;;;;;;;;;;109758;1251;58873;-78
2023/07/20 03:40:17;;;;;;;23.60;17.90;;;;;;;;;;109774;1250;58885;-78
2023/07/20 03:42:44;;;;;;;57.40;39.40;;;;;;;;;;109845;1250;58715;-79
2023/07/20 03:45:10;;;;;;;41.50;28.20;;;;;;;;;;109808;1251;59253;-78
2023/07/20 03:47:37;;;;;;;23.00;16.80;;;;;;;;;;109799;1251;58966;-79
2023/07/20 03:50:05;;;;;;;14.50;9.30;;;;;;;;;;109800;1251;59012;-79
2023/07/20 03:52:31;;;;;;;16.50;9.10;;;;;;;;;;109793;1251;59070;-78
2023/07/20 03:54:58;;;;;;;15.20;10.50;;;;;;;;;;109841;1250;58918;-78
2023/07/20 03:57:24;;;;;;;14.60;10.80;;;;;;;;;;109836;1251;59162;-79
2023/07/20 03:59:50;;;;;;;14.40;10.80;;;;;;;;;;109791;1250;59136;-79
2023/07/20 04:02:17;;;;;;;13.00;9.30;;;;;;;;;;109792;1251;59173;-79
2023/07/20 04:04:44;;;;;;;17.90;9.30;;;;;;;;;;109747;1251;59248;-79
2023/07/20 04:07:10;;;;;;;19.30;9.20;;;;;;;;;;109826;1251;58853;-79
2023/07/20 04:09:36;;;;;;;13.90;9.30;;;;;;;;;;109818;1251;58918;-79
2023/07/20 04:12:03;;;;;;;17.70;11.70;;;;;;;;;;109876;1249;59079;-79
2023/07/20 04:14:29;;;;;;;13.40;10.30;;;;;;;;;;109923;1249;58884;-79
2023/07/20 04:16:55;;;;;;;11.70;9.60;;;;;;;;;;109215;1250;61251;-78
2023/07/20 04:19:22;;;;;;;11.60;9.80;;;;;;;;;;106958;1249;61342;-78
2023/07/20 04:21:48;;;;;;;12.70;9.20;;;;;;;;;;106958;1249;61411;-78
2023/07/20 04:24:15;;;;;;;12.10;9.20;;;;;;;;;;106869;1253;61221;-78
2023/07/20 04:26:41;;;;;;;14.50;10.20;;;;;;;;;;106813;1253;61215;-78
2023/07/20 04:29:07;;;;;;;14.80;11.00;;;;;;;;;;106849;1250;61267;-78
2023/07/20 04:31:34;;;;;;;18.20;13.90;;;;;;;;;;106808;1250;61103;-78
2023/07/20 04:34:00;;;;;;;9.30;5.70;;;;;;;;;;106847;1250;61515;-79
2023/07/20 04:36:27;;;;;;;20.90;9.10;;;;;;;;;;107560;1249;61379;-79
2023/07/20 04:38:54;;;;;;;25.60;10.60;;;;;;;;;;107386;1250;61331;-79
2023/07/20 04:41:20;;;;;;;24.50;11.70;;;;;;;;;;106821;1253;61335;-79
2023/07/20 04:43:47;;;;;;;19.30;7.90;;;;;;;;;;106797;1250;61333;-79
2023/07/20 04:46:13;;;;;;;14.50;7.20;;;;;;;;;;106788;1249;61356;-79
2023/07/20 04:48:40;;;;;;;7.70;4.40;;;;;;;;;;106822;1249;61334;-79
2023/07/20 04:51:06;;;;;;;5.40;3.90;;;;;;;;;;106754;1249;61264;-80
2023/07/20 04:53:33;;;;;;;7.20;3.80;;;;;;;;;;106859;1250;61220;-79
2023/07/20 04:55:59;;;;;;;12.50;7.90;;;;;;;;;;106823;1250;61331;-80
2023/07/20 04:58:26;;;;;;;25.50;11.00;;;;;;;;;;106856;1250;61327;-79
2023/07/20 05:00:52;;;;;;;13.50;7.40;;;;;;;;;;107118;1249;59674;-79
2023/07/20 05:03:19;;;;;;;14.90;8.30;;;;;;;;;;107459;1250;61325;-79
2023/07/20 05:05:46;;;;;;;15.50;10.10;;;;;;;;;;107357;1251;61236;-80
2023/07/20 05:08:12;;;;;;;26.30;11.80;;;;;;;;;;107399;1250;61137;-80
2023/07/20 05:10:39;;;;;;;17.80;7.60;;;;;;;;;;107444;1253;61347;-79
2023/07/20 05:13:05;;;;;;;14.10;6.10;;;;;;;;;;107477;1253;61241;-79
2023/07/20 05:15:32;;;;;;;15.20;7.40;;;;;;;;;;107419;1249;61272;-79
2023/07/20 05:17:59;;;;;;;21.30;11.00;;;;;;;;;;107363;1250;61224;-79
2023/07/20 05:20:25;;;;;;;15.00;7.70;;;;;;;;;;107439;1253;61284;-79
2023/07/20 05:22:52;;;;;;;8.70;6.60;;;;;;;;;;107460;1249;61228;-80
2023/07/20 05:25:20;;;;;;;8.70;5.20;;;;;;;;;;107359;1249;61230;-79
2023/07/20 05:27:46;;;;;;;15.00;9.10;;;;;;;;;;107361;1249;61311;-79
2023/07/20 05:30:12;;;;;;;12.80;7.70;;;;;;;;;;107443;1250;61309;-79
2023/07/20 05:32:39;;;;;;;13.30;6.70;;;;;;;;;;107448;1250;61320;-79
2023/07/20 05:35:06;;;;;;;9.50;6.00;;;;;;;;;;107396;1249;61217;-79
2023/07/20 05:37:32;;;;;;;8.50;6.00;;;;;;;;;;107365;1249;61240;-79
2023/07/20 05:39:58;;;;;;;10.80;6.40;;;;;;;;;;107403;1251;61251;-79
2023/07/20 05:42:25;;;;;;;11.90;5.90;;;;;;;;;;107384;1250;61270;-79
2023/07/20 05:44:52;;;;;;;10.70;6.80;;;;;;;;;;107368;1250;61070;-79
2023/07/20 05:47:19;;;;;;;9.70;6.90;;;;;;;;;;107410;1254;61308;-79
2023/07/20 05:49:46;;;;;;;9.00;5.90;;;;;;;;;;107763;1249;61233;-79
2023/07/20 05:52:12;;;;;;;8.40;6.40;;;;;;;;;;107761;1249;61320;-79
2023/07/20 05:54:39;;;;;;;7.20;5.30;;;;;;;;;;107784;1250;61158;-77
2023/07/20 05:57:06;;;;;;;8.90;6.70;;;;;;;;;;106946;1249;61289;-77
2023/07/20 05:59:32;;;;;;;11.60;6.00;;;;;;;;;;106856;1254;61218;-78
2023/07/20 06:01:58;;;;;;;7.50;5.50;;;;;;;;;;106872;1249;61132;-77
2023/07/20 06:04:25;;;;;;;7.30;5.30;;;;;;;;;;106936;1249;61379;-77
2023/07/20 06:06:51;;;;;;;8.80;5.40;;;;;;;;;;106748;1254;61245;-79
2023/07/20 06:09:17;;;;;;;9.40;5.10;;;;;;;;;;106820;1251;61423;-79
2023/07/20 06:11:44;;;;;;;9.60;5.80;;;;;;;;;;106779;1249;61274;-78
2023/07/20 06:14:10;;;;;;;8.80;4.70;;;;;;;;;;106850;1250;61256;-79
2023/07/20 06:16:37;;;;;;;9.10;5.30;;;;;;;;;;106789;1249;61301;-78
2023/07/20 06:19:03;;;;;;;8.60;6.10;;;;;;;;;;106806;1252;61350;-79
2023/07/20 06:21:29;;;;;;;10.40;5.70;;;;;;;;;;106790;1253;61766;-79
2023/07/20 06:23:56;;;;;;;7.50;5.10;;;;;;;;;;106828;1249;61322;-79
2023/07/20 06:26:22;;;;;;;7.90;4.80;;;;;;;;;;106917;1252;61302;-79
2023/07/20 06:28:49;;;;;;;8.50;4.40;;;;;;;;;;106765;1250;61689;-79
2023/07/20 06:31:16;;;;;;;7.50;4.90;;;;;;;;;;106907;1249;61139;-79
2023/07/20 06:33:42;;;;;;;8.80;5.00;;;;;;;;;;106813;1254;61153;-80
2023/07/20 06:36:09;;;;;;;5.70;4.60;;;;;;;;;;106831;1250;61817;-78
2023/07/20 06:38:36;;;;;;;6.70;4.10;;;;;;;;;;107025;1249;61360;-79
2023/07/20 06:41:02;;;;;;;6.90;4.40;;;;;;;;;;106986;1251;61265;-79
2023/07/20 06:43:29;;;;;;;6.90;4.70;;;;;;;;;;106842;1255;61327;-79
2023/07/20 06:45:55;;;;;;;5.90;4.50;;;;;;;;;;106768;1253;61245;-78
2023/07/20 06:48:22;;;;;;;7.40;4.70;;;;;;;;;;106826;1250;61444;-78
2023/07/20 06:50:48;;;;;;;6.30;4.30;;;;;;;;;;106811;1250;61264;-79
2023/07/20 06:53:14;;;;;;;7.70;4.60;;;;;;;;;;106804;1250;61338;-79
2023/07/20 06:55:44;;;;;;;7.20;5.00;;;;;;;;;;106768;1250;61423;-78
2023/07/20 06:58:10;;;;;;;7.20;4.40;;;;;;;;;;106733;1250;61347;-78
2023/07/20 07:00:37;;;;;;;8.70;5.00;;;;;;;;;;107064;1250;61240;-78
2023/07/20 07:03:04;;;;;;;10.50;3.80;;;;;;;;;;106706;1255;59720;-79
2023/07/20 07:05:30;;;;;;;20.20;3.80;;;;;;;;;;106768;1253;63411;-79
2023/07/20 07:07:57;;;;;;;9.30;3.60;;;;;;;;;;106748;1249;61257;-79
2023/07/20 07:10:23;;;;;;;7.20;3.60;;;;;;;;;;107305;1250;167988;-79
2023/07/20 07:12:50;;;;;;;5.20;2.90;;;;;;;;;;107362;1252;61238;-79
2023/07/20 07:15:16;;;;;;;4.90;3.30;;;;;;;;;;107311;1249;61325;-79
2023/07/20 07:17:43;;;;;;;7.10;3.60;;;;;;;;;;107222;1250;61190;-78
2023/07/20 07:20:09;;;;;;;7.20;3.10;;;;;;;;;;107396;1253;61193;-80
2023/07/20 07:22:36;;;;;;;7.50;3.20;;;;;;;;;;107517;1254;60274;-80
2023/07/20 07:25:03;;;;;;;4.40;3.10;;;;;;;;;;107527;1255;61147;-80
2023/07/20 07:27:30;;;;;;;7.10;3.60;;;;;;;;;;107293;1249;61226;-79
2023/07/20 07:29:56;;;;;;;8.80;4.10;;;;;;;;;;107307;1254;61329;-79
2023/07/20 07:32:23;;;;;;;6.00;3.50;;;;;;;;;;107296;1249;61267;-79
2023/07/20 07:34:50;;;;;;;7.90;4.70;;;;;;;;;;107349;1254;61203;-80
2023/07/20 07:37:17;;;;;;;8.30;4.20;;;;;;;;;;107267;1254;61183;-79
2023/07/20 07:39:43;;;;;;;5.20;3.50;;;;;;;;;;107300;1249;61167;-80
2023/07/20 07:42:10;;;;;;;5.80;2.40;;;;;;;;;;107364;1250;61348;-80
2023/07/20 07:44:36;;;;;;;4.90;2.70;;;;;;;;;;107286;1252;61419;-80
2023/07/20 07:47:03;;;;;;;6.80;2.60;;;;;;;;;;107310;1249;61288;-80
2023/07/20 07:49:29;;;;;;;5.20;2.20;;;;;;;;;;107277;1249;61224;-80
2023/07/20 07:51:56;;;;;;;5.40;2.50;;;;;;;;;;107539;1250;61272;-79
2023/07/20 07:54:22;;;;;;;6.30;2.90;;;;;;;;;;107210;1250;61225;-79
2023/07/20 07:56:49;;;;;;;6.80;3.00;;;;;;;;;;107191;1249;61315;-79
2023/07/20 07:59:15;;;;;;;3.40;2.10;;;;;;;;;;107273;1250;61193;-79
2023/07/20 08:01:41;;;;;;;3.90;2.20;;;;;;;;;;107440;1249;61317;-79
2023/07/20 08:04:08;;;;;;;3.00;1.70;;;;;;;;;;107423;1249;59708;-79
2023/07/20 08:06:35;;;;;;;6.10;2.10;;;;;;;;;;107283;1250;61254;-79
2023/07/20 08:09:01;;;;;;;2.50;1.80;;;;;;;;;;107227;1250;61298;-79
2023/07/20 08:11:30;;;;;;;4.60;2.30;;;;;;;;;;107419;1249;61374;-81
2023/07/20 08:13:57;;;;;;;3.10;2.00;;;;;;;;;;107223;1249;60798;-79
2023/07/20 08:16:23;;;;;;;4.00;1.90;;;;;;;;;;107329;1250;61291;-79
2023/07/20 08:18:50;;;;;;;4.10;2.10;;;;;;;;;;107269;1250;61926;-80
2023/07/20 08:21:17;;;;;;;4.70;1.80;;;;;;;;;;107384;1253;61324;-80
2023/07/20 08:23:43;;;;;;;3.60;1.60;;;;;;;;;;107365;1255;61181;-79
2023/07/20 08:26:10;;;;;;;3.50;2.00;;;;;;;;;;107354;1249;61117;-80
2023/07/20 08:28:36;;;;;;;3.90;2.10;;;;;;;;;;107314;1249;61237;-79
2023/07/20 08:31:03;;;;;;;2.90;1.60;;;;;;;;;;107477;1250;61294;-79
2023/07/20 08:33:33;;;;;;;5.20;2.20;;;;;;;;;;107302;1250;61349;-80
2023/07/20 08:36:00;;;;;;;5.10;1.70;;;;;;;;;;107346;1249;61906;-80
2023/07/20 08:38:27;;;;;;;4.20;3.60;;;;;;;;;;107308;1250;61141;-80
2023/07/20 08:40:55;;;;;;;2.50;1.90;;;;;;;;;;107449;1249;62242;-80
2023/07/20 08:43:23;;;;;;;2.80;2.00;;;;;;;;;;107197;1249;61116;-80
2023/07/20 08:45:50;;;;;;;4.80;2.10;;;;;;;;;;107733;1249;61221;-80
2023/07/20 08:48:16;;;;;;;5.30;2.10;;;;;;;;;;107314;1250;61354;-81
2023/07/20 08:50:42;;;;;;;4.20;2.70;;;;;;;;;;107465;1254;61249;-80
2023/07/20 08:53:09;;;;;;;3.70;1.80;;;;;;;;;;107559;1249;60977;-79
2023/07/20 08:55:35;;;;;;;3.90;1.80;;;;;;;;;;107496;1250;61393;-80
2023/07/20 08:58:01;;;;;;;2.80;2.00;;;;;;;;;;107706;1250;61336;-79
2023/07/20 09:00:29;;;;;;;4.80;2.00;;;;;;;;;;107656;1249;61218;-79
2023/07/20 09:02:56;;;;;;;6.40;2.10;;;;;;;;;;107644;1255;61241;-79
2023/07/20 09:05:23;;;;;;;2.50;1.80;;;;;;;;;;107648;1249;61226;-80
2023/07/20 09:07:50;;;;;;;4.20;2.00;;;;;;;;;;107836;1249;61308;-79
2023/07/20 09:10:17;;;;;;;3.60;2.10;;;;;;;;;;107932;1253;59395;-79
2023/07/20 09:12:43;;;;;;;2.50;1.80;;;;;;;;;;107871;1249;61232;-80
2023/07/20 09:15:10;;;;;;;3.90;2.00;;;;;;;;;;107578;1253;61222;-79
2023/07/20 09:17:39;;;;;;;4.00;2.00;;;;;;;;;;107600;1250;61245;-80
2023/07/20 09:20:10;;;;;;;6.50;2.00;;;;;;;;;;107710;1254;61176;-80
2023/07/20 09:22:39;;;;;;;3.50;2.00;;;;;;;;;;107666;1250;61198;-80
2023/07/20 09:25:06;;;;;;;3.10;1.90;;;;;;;;;;107638;1253;61894;-80
2023/07/20 09:27:37;;;;;;;2.70;1.70;;;;;;;;;;107538;1250;59848;-79
2023/07/20 09:30:04;;;;;;;3.50;1.80;;;;;;;;;;107862;1249;61205;-80
2023/07/20 09:32:30;;;;;;;4.60;2.10;;;;;;;;;;107683;1253;59177;-79
2023/07/20 09:34:57;;;;;;;2.90;1.70;;;;;;;;;;107525;1250;61277;-79
2023/07/20 09:37:24;;;;;;;3.10;1.60;;;;;;;;;;107462;1250;61138;-80
2023/07/20 09:39:53;;;;;;;3.90;2.00;;;;;;;;;;107531;1250;62358;-79
2023/07/20 09:42:21;;;;;;;5.00;1.90;;;;;;;;;;107588;1250;59751;-79
2023/07/20 09:44:48;;;;;;;4.80;2.10;;;;;;;;;;107541;1250;61339;-78
2023/07/20 09:47:21;;;;;;;4.60;1.90;;;;;;;;;;107555;1249;61333;-78
2023/07/20 09:49:47;;;;;;;5.50;2.00;;;;;;;;;;107500;1250;61201;-80
2023/07/20 09:52:14;;;;;;;3.20;2.40;;;;;;;;;;107607;1250;60609;-80
2023/07/20 09:54:41;;;;;;;5.20;2.50;;;;;;;;;;107539;1249;61573;-79
2023/07/20 09:57:12;;;;;;;3.20;1.90;;;;;;;;;;106956;1249;61260;-79
2023/07/20 09:59:38;;;;;;;4.10;2.20;;;;;;;;;;106833;1254;61647;-79
2023/07/20 10:02:07;;;;;;;2.80;1.90;;;;;;;;;;106910;1254;61116;-79
2023/07/20 10:04:34;;;;;;;4.40;2.00;;;;;;;;;;106891;1254;61158;-79
2023/07/20 10:07:00;;;;;;;7.00;2.00;;;;;;;;;;106898;1251;61243;-79
2023/07/20 10:09:27;;;;;;;3.90;1.90;;;;;;;;;;106896;1249;61353;-79
2023/07/20 10:11:53;;;;;;;6.60;2.10;;;;;;;;;;106980;1256;61420;-79
2023/07/20 10:14:20;;;;;;;3.20;2.00;;;;;;;;;;106886;1250;61137;-79
2023/07/20 10:16:50;;;;;;;3.60;2.10;;;;;;;;;;106829;1250;61379;-79
2023/07/20 10:19:25;;;;;;;3.20;2.60;;;;;;;;;;106829;1254;61144;-79
2023/07/20 10:21:55;;;;;;;2.80;2.10;;;;;;;;;;109442;1249;61274;-79
2023/07/20 10:24:21;;;;;;;5.00;1.90;;;;;;;;;;106898;1250;61332;-79
2023/07/20 10:26:48;;;;;;;3.30;1.80;;;;;;;;;;107567;1249;61078;-79
2023/07/20 10:29:14;;;;;;;2.80;1.80;;;;;;;;;;107661;1251;62780;-79
2023/07/20 10:31:41;;;;;;;2.50;1.50;;;;;;;;;;107678;1250;61215;-80
2023/07/20 10:34:07;;;;;;;3.30;1.80;;;;;;;;;;107572;1250;61309;-79
2023/07/20 10:36:34;;;;;;;3.10;1.90;;;;;;;;;;107506;1250;61336;-80
2023/07/20 10:39:00;;;;;;;3.00;1.60;;;;;;;;;;107604;1255;61352;-80
2023/07/20 10:41:28;;;;;;;4.10;1.60;;;;;;;;;;107726;1253;59837;-79
2023/07/20 10:43:57;;;;;;;1.90;1.20;;;;;;;;;;107677;1254;60213;-79
2023/07/20 10:46:33;;;;;;;3.50;1.50;;;;;;;;;;107622;1249;61211;-79
2023/07/20 10:49:02;;;;;;;2.50;1.40;;;;;;;;;;107616;1249;61236;-79
2023/07/20 10:51:28;;;;;;;4.90;1.50;;;;;;;;;;107676;1250;60228;-80
2023/07/20 10:53:56;;;;;;;3.10;1.60;;;;;;;;;;107536;1249;61257;-80
2023/07/20 10:56:23;;;;;;;3.40;1.60;;;;;;;;;;107849;1250;61286;-80
2023/07/20 10:58:49;;;;;;;3.80;1.30;;;;;;;;;;107498;1254;61154;-79
2023/07/20 11:01:16;;;;;;;2.60;1.60;;;;;;;;;;107667;1250;61330;-79
2023/07/20 11:03:44;;;;;;;1.80;1.50;;;;;;;;;;107496;1250;61215;-80
2023/07/20 11:06:26;;;;;;;3.00;1.70;;;;;;;;;;107637;1250;61971;-81
2023/07/20 11:08:56;;;;;;;3.10;1.80;;;;;;;;;;107590;1250;61698;-80
2023/07/20 11:11:23;;;;;;;2.00;1.30;;;;;;;;;;107613;1253;61228;-80
2023/07/20 11:13:59;;;;;;;2.40;1.50;;;;;;;;;;107530;1249;61350;-80
2023/07/20 11:16:37;;;;;;;5.30;1.70;;;;;;;;;;107436;1254;60862;-80
2023/07/20 11:19:04;;;;;;;5.30;2.10;;;;;;;;;;107520;1253;61221;-80
2023/07/20 11:21:38;;;;;;;3.00;1.80;;;;;;;;;;107680;1249;61391;-80
2023/07/20 11:24:05;;;;;;;5.60;2.00;;;;;;;;;;107638;1250;61272;-80
2023/07/20 11:26:39;;;;;;;6.00;2.30;;;;;;;;;;107623;1250;61342;-80
2023/07/20 11:29:05;;;;;;;4.80;1.90;;;;;;;;;;107552;1250;61228;-80
2023/07/20 11:31:34;;;;;;;3.30;1.80;;;;;;;;;;107665;1250;61125;-80
2023/07/20 11:34:01;;;;;;;3.80;1.90;;;;;;;;;;107508;1253;61099;-78
2023/07/20 11:36:27;;;;;;;3.50;2.60;;;;;;;;;;106884;1250;61366;-77
2023/07/20 11:38:54;;;;;;;5.30;2.00;;;;;;;;;;106983;1253;61278;-80
2023/07/20 11:41:21;;;;;;;5.40;2.40;;;;;;;;;;107848;1250;61086;-80
2023/07/20 11:43:47;;;;;;;2.90;1.80;;;;;;;;;;107692;1250;61245;-80
2023/07/20 11:46:15;;;;;;;2.70;2.10;;;;;;;;;;107704;1250;61149;-80
2023/07/20 11:48:42;;;;;;;5.10;2.00;;;;;;;;;;107522;1249;61196;-80
2023/07/20 11:51:17;;;;;;;3.70;2.30;;;;;;;;;;107738;1249;61294;-81
2023/07/20 11:53:44;;;;;;;4.40;3.10;;;;;;;;;;108966;1250;61166;-80
2023/07/20 11:56:10;;;;;;;5.30;2.90;;;;;;;;;;109862;1250;59831;-80
2023/07/20 11:58:41;;;;;;;5.20;3.80;;;;;;;;;;109828;1250;58968;-81
2023/07/20 12:01:07;;;;;;;4.20;2.30;;;;;;;;;;109769;1251;59017;-81
2023/07/20 12:03:34;;;;;;;8.10;5.00;;;;;;;;;;107898;1249;61214;-80
2023/07/20 12:06:08;;;;;;;2.60;2.00;;;;;;;;;;107649;1251;61218;-80
2023/07/20 12:08:34;;;;;;;4.30;2.00;;;;;;;;;;107583;1249;61160;-80
2023/07/20 12:11:01;;;;;;;4.60;1.90;;;;;;;;;;107791;1252;60470;-80
2023/07/20 12:13:37;;;;;;;4.20;2.30;;;;;;;;;;107662;1250;61192;-80
2023/07/20 12:16:11;;;;;;;7.60;2.50;;;;;;;;;;108463;1250;61336;-80
2023/07/20 12:18:37;;;;;;;4.00;2.10;;;;;;;;;;107567;1254;60244;-80
2023/07/20 12:21:04;;;;;;;8.20;2.40;;;;;;;;;;107685;1249;61252;-80
2023/07/20 12:23:37;;;;;;;4.10;2.30;;;;;;;;;;107563;1252;61277;-80
2023/07/20 12:26:06;;;;;;;4.10;2.20;;;;;;;;;;108433;1251;61250;-81
2023/07/20 12:28:32;;;;;;;2.90;2.30;;;;;;;;;;107739;1252;60878;-80
2023/07/20 12:30:59;;;;;;;5.30;2.00;;;;;;;;;;107732;1251;61285;-81
2023/07/20 12:33:25;;;;;;;6.20;2.10;;;;;;;;;;107574;1250;61353;-80
2023/07/20 12:35:55;;;;;;;4.10;1.80;;;;;;;;;;107558;1250;61239;-80
2023/07/20 12:38:23;;;;;;;3.20;2.00;;;;;;;;;;107571;1251;61224;-80
2023/07/20 12:40:49;;;;;;;2.80;1.60;;;;;;;;;;107724;1251;61102;-80
2023/07/20 12:43:15;;;;;;;5.30;1.90;;;;;;;;;;107679;1255;61074;-80
2023/07/20 12:45:43;;;;;;;4.10;1.70;;;;;;;;;;107585;1250;60797;-80
2023/07/20 12:48:09;;;;;;;3.40;1.60;;;;;;;;;;107581;1251;61296;-80
2023/07/20 12:50:35;;;;;;;5.10;1.50;;;;;;;;;;107679;1256;61984;-80
2023/07/20 12:53:03;;;;;;;3.40;1.80;;;;;;;;;;107639;1251;61308;-80
2023/07/20 12:55:29;;;;;;;3.40;1.90;;;;;;;;;;107685;1251;61232;-80
2023/07/20 12:57:56;;;;;;;4.30;2.20;;;;;;;;;;107553;1254;61281;-80
2023/07/20 13:00:23;;;;;;;3.70;2.60;;;;;;;;;;107766;1249;59835;-80
2023/07/20 13:02:49;;;;;;;4.80;1.80;;;;;;;;;;107655;1253;61333;-80
2023/07/20 13:05:16;;;;;;;3.80;2.10;;;;;;;;;;107612;1255;61172;-80
2023/07/20 13:07:42;;;;;;;2.50;1.60;;;;;;;;;;107681;1251;61225;-80
2023/07/20 13:10:09;;;;;;;3.50;1.80;;;;;;;;;;107712;1252;61376;-80
2023/07/20 13:12:36;;;;;;;3.80;1.90;;;;;;;;;;107639;1254;59919;-80
2023/07/20 13:15:05;;;;;;;4.10;1.60;;;;;;;;;;108636;1253;61115;-81
2023/07/20 13:17:33;;;;;;;3.20;1.80;;;;;;;;;;107665;1250;61199;-81
2023/07/20 13:19:59;;;;;;;3.40;1.90;;;;;;;;;;107650;1251;61235;-80
2023/07/20 13:22:25;;;;;;;3.90;2.40;;;;;;;;;;107740;1251;59371;-80
2023/07/20 13:24:52;;;;;;;3.10;2.10;;;;;;;;;;107604;1252;61280;-80
2023/07/20 13:27:18;;;;;;;4.50;1.60;;;;;;;;;;107762;1253;62659;-80
2023/07/20 13:29:45;;;;;;;3.50;1.80;;;;;;;;;;107659;1251;61231;-80
2023/07/20 13:32:15;;;;;;;3.60;1.70;;;;;;;;;;107741;1254;61310;-81
2023/07/20 13:34:41;;;;;;;3.30;1.90;;;;;;;;;;107576;1253;61116;-80
2023/07/20 13:37:08;;;;;;;4.70;1.60;;;;;;;;;;107755;1251;61257;-81
2023/07/20 13:39:34;;;;;;;4.10;1.60;;;;;;;;;;107664;1250;61357;-81
2023/07/20 13:42:05;;;;;;;5.00;1.70;;;;;;;;;;107833;1251;62286;-80
2023/07/20 13:44:31;;;;;;;1.70;1.10;;;;;;;;;;107722;1251;61238;-81
2023/07/20 13:46:58;;;;;;;2.70;1.50;;;;;;;;;;107696;1251;61327;-81
2023/07/20 13:49:24;;;;;;;4.10;1.90;;;;;;;;;;107633;1251;61254;-81
2023/07/20 13:51:51;;;;;;;5.40;1.50;;;;;;;;;;107820;1255;61231;-80
2023/07/20 13:54:17;;;;;;;2.90;1.50;;;;;;;;;;107629;1254;62336;-80
2023/07/20 13:56:44;;;;;;;4.00;1.60;;;;;;;;;;107762;1251;60324;-80
2023/07/20 13:59:10;;;;;;;3.00;1.60;;;;;;;;;;107646;1251;61364;-81
2023/07/20 14:01:36;;;;;;;3.90;1.70;;;;;;;;;;107858;1254;61191;-80
2023/07/20 14:04:03;;;;;;;2.10;1.30;;;;;;;;;;107588;1251;61340;-81
2023/07/20 14:06:30;;;;;;;2.90;1.60;;;;;;;;;;107639;1251;61121;-80
2023/07/20 14:08:57;;;;;;;3.50;1.70;;;;;;;;;;107662;1249;61222;-80
2023/07/20 14:11:24;;;;;;;5.30;2.20;;;;;;;;;;107767;1251;61324;-79
2023/07/20 14:13:51;;;;;;;2.30;1.20;;;;;;;;;;107646;1251;62255;-80
2023/07/20 14:16:17;;;;;;;3.50;1.60;;;;;;;;;;107684;1254;61248;-80
2023/07/20 14:18:47;;;;;;;6.20;1.70;;;;;;;;;;107710;1249;61215;-80
2023/07/20 14:21:13;;;;;;;2.60;1.70;;;;;;;;;;107985;1248;61096;-80
2023/07/20 14:23:39;;;;;;;4.30;1.90;;;;;;;;;;107585;1255;61332;-80